sensor_id;sensor_type;location;lat;lon;timestamp;P1;durP1;ratioP1;P2;durP2;ratioP2
583;SDS011;27024;54.068;12.116;2023-06-22T00:01:19;10.45;;;5.80;;
583;SDS011;27024;54.068;12.116;2023-06-22T00:03:47;8.95;;;5.60;;
583;SDS011;27024;54.068;12.116;2023-06-22T00:06:14;7.72;;;5.65;;
583;SDS011;27024;54.068;12.116;2023-06-22T00:08:41;10.93;;;5.72;;
583;SDS011;27024;54.068;12.116;2023-06-22T00:11:08;8.93;;;6.63;;
583;SDS011;27024;54.068;12.116;2023-06-22T00:13:35;7.57;;;5.40;;
583;SDS011;27024;54.068;12.116;2023-06-22T00:16:02;8.07;;;5.22;;
583;SDS011;27024;54.068;12.116;2023-06-22T00:18:29;7.97;;;5.50;;
583;SDS011;27024;54.068;12.116;2023-06-22T00:20:57;8.80;;;5.32;;
583;SDS011;27024;54.068;12.116;2023-06-22T00:23:25;9.98;;;5.68;;
583;SDS011;27024;54.068;12.116;2023-06-22T00:25:52;7.82;;;5.38;;
583;SDS011;27024;54.068;12.116;2023-06-22T00:28:20;10.32;;;6.57;;
583;SDS011;27024;54.068;12.116;2023-06-22T00:30:48;11.70;;;6.72;;
583;SDS011;27024;54.068;12.116;2023-06-22T00:33:16;9.32;;;5.90;;
583;SDS011;27024;54.068;12.116;2023-06-22T00:35:43;11.18;;;6.45;;
583;SDS011;27024;54.068;12.116;2023-06-22T00:38:10;10.02;;;5.93;;
583;SDS011;27024;54.068;12.116;2023-06-22T00:40:37;11.25;;;5.68;;
583;SDS011;27024;54.068;12.116;2023-06-22T00:43:05;7.32;;;5.70;;
583;SDS011;27024;54.068;12.116;2023-06-22T00:45:32;9.23;;;5.65;;
583;SDS011;27024;54.068;12.116;2023-06-22T00:47:59;11.57;;;6.40;;
583;SDS011;27024;54.068;12.116;2023-06-22T00:50:28;11.15;;;6.63;;
583;SDS011;27024;54.068;12.116;2023-06-22T00:53:01;9.02;;;5.80;;
583;SDS011;27024;54.068;12.116;2023-06-22T00:55:36;11.95;;;6.68;;
583;SDS011;27024;54.068;12.116;2023-06-22T00:58:05;10.95;;;6.40;;
583;SDS011;27024;54.068;12.116;2023-06-22T01:00:37;9.25;;;5.75;;
583;SDS011;27024;54.068;12.116;2023-06-22T01:03:05;10.23;;;6.63;;
583;SDS011;27024;54.068;12.116;2023-06-22T01:05:36;10.00;;;6.72;;
583;SDS011;27024;54.068;12.116;2023-06-22T01:08:21;9.65;;;6.80;;
583;SDS011;27024;54.068;12.116;2023-06-22T01:11:08;10.95;;;7.25;;
583;SDS011;27024;54.068;12.116;2023-06-22T01:14:00;9.05;;;6.55;;
583;SDS011;27024;54.068;12.116;2023-06-22T01:16:34;8.48;;;6.18;;
583;SDS011;27024;54.068;12.116;2023-06-22T01:21:54;11.75;;;7.05;;
583;SDS011;27024;54.068;12.116;2023-06-22T01:30:09;12.02;;;6.60;;
583;SDS011;27024;54.068;12.116;2023-06-22T01:32:38;9.52;;;7.00;;
583;SDS011;27024;54.068;12.116;2023-06-22T01:35:07;9.90;;;7.25;;
583;SDS011;27024;54.068;12.116;2023-06-22T01:37:35;9.02;;;6.50;;
583;SDS011;27024;54.068;12.116;2023-06-22T01:40:04;11.23;;;6.68;;
583;SDS011;27024;54.068;12.116;2023-06-22T01:42:32;11.10;;;7.15;;
583;SDS011;27024;54.068;12.116;2023-06-22T01:45:00;10.88;;;7.10;;
583;SDS011;27024;54.068;12.116;2023-06-22T01:47:28;9.45;;;6.45;;
583;SDS011;27024;54.068;12.116;2023-06-22T01:49:55;12.52;;;6.28;;
583;SDS011;27024;54.068;12.116;2023-06-22T01:52:23;11.85;;;7.25;;
583;SDS011;27024;54.068;12.116;2023-06-22T01:54:50;12.55;;;7.00;;
583;SDS011;27024;54.068;12.116;2023-06-22T01:57:16;11.00;;;6.35;;
583;SDS011;27024;54.068;12.116;2023-06-22T02:02:23;11.07;;;6.70;;
583;SDS011;27024;54.068;12.116;2023-06-22T02:04:57;10.18;;;6.57;;
583;SDS011;27024;54.068;12.116;2023-06-22T02:07:38;10.48;;;6.57;;
583;SDS011;27024;54.068;12.116;2023-06-22T02:10:11;12.55;;;7.20;;
583;SDS011;27024;54.068;12.116;2023-06-22T02:12:40;10.65;;;6.57;;
583;SDS011;27024;54.068;12.116;2023-06-22T02:15:10;10.65;;;7.05;;
583;SDS011;27024;54.068;12.116;2023-06-22T02:17:39;10.95;;;6.40;;
583;SDS011;27024;54.068;12.116;2023-06-22T02:20:12;9.68;;;6.20;;
583;SDS011;27024;54.068;12.116;2023-06-22T02:22:40;9.57;;;6.53;;
583;SDS011;27024;54.068;12.116;2023-06-22T02:25:07;10.40;;;6.95;;
583;SDS011;27024;54.068;12.116;2023-06-22T02:27:34;10.75;;;7.15;;
583;SDS011;27024;54.068;12.116;2023-06-22T02:30:01;11.10;;;6.72;;
583;SDS011;27024;54.068;12.116;2023-06-22T02:32:28;13.10;;;7.00;;
583;SDS011;27024;54.068;12.116;2023-06-22T02:34:55;11.40;;;6.43;;
583;SDS011;27024;54.068;12.116;2023-06-22T02:37:22;10.25;;;6.90;;
583;SDS011;27024;54.068;12.116;2023-06-22T02:39:51;11.82;;;7.88;;
583;SDS011;27024;54.068;12.116;2023-06-22T02:42:18;11.90;;;6.80;;
583;SDS011;27024;54.068;12.116;2023-06-22T02:44:47;10.07;;;6.93;;
583;SDS011;27024;54.068;12.116;2023-06-22T02:47:14;9.65;;;6.75;;
583;SDS011;27024;54.068;12.116;2023-06-22T02:49:41;11.18;;;8.05;;
583;SDS011;27024;54.068;12.116;2023-06-22T02:52:11;10.98;;;7.45;;
583;SDS011;27024;54.068;12.116;2023-06-22T02:54:38;9.85;;;6.75;;
583;SDS011;27024;54.068;12.116;2023-06-22T02:57:04;10.18;;;7.10;;
583;SDS011;27024;54.068;12.116;2023-06-22T02:59:31;11.32;;;6.30;;
583;SDS011;27024;54.068;12.116;2023-06-22T03:02:00;11.02;;;6.70;;
583;SDS011;27024;54.068;12.116;2023-06-22T03:04:27;8.70;;;6.55;;
583;SDS011;27024;54.068;12.116;2023-06-22T03:06:54;10.50;;;7.38;;
583;SDS011;27024;54.068;12.116;2023-06-22T03:09:20;10.40;;;6.72;;
583;SDS011;27024;54.068;12.116;2023-06-22T03:11:47;11.38;;;7.13;;
583;SDS011;27024;54.068;12.116;2023-06-22T03:14:14;9.70;;;6.70;;
583;SDS011;27024;54.068;12.116;2023-06-22T03:16:41;8.85;;;5.75;;
583;SDS011;27024;54.068;12.116;2023-06-22T03:19:08;11.52;;;6.18;;
583;SDS011;27024;54.068;12.116;2023-06-22T03:21:34;8.20;;;6.30;;
583;SDS011;27024;54.068;12.116;2023-06-22T03:24:01;9.00;;;6.47;;
583;SDS011;27024;54.068;12.116;2023-06-22T03:26:28;11.38;;;6.93;;
583;SDS011;27024;54.068;12.116;2023-06-22T03:28:56;11.38;;;6.10;;
583;SDS011;27024;54.068;12.116;2023-06-22T03:31:23;9.10;;;6.28;;
583;SDS011;27024;54.068;12.116;2023-06-22T03:33:50;9.45;;;6.63;;
583;SDS011;27024;54.068;12.116;2023-06-22T03:36:17;12.25;;;6.53;;
583;SDS011;27024;54.068;12.116;2023-06-22T03:38:47;9.48;;;5.97;;
583;SDS011;27024;54.068;12.116;2023-06-22T03:41:15;10.80;;;7.10;;
583;SDS011;27024;54.068;12.116;2023-06-22T03:43:42;10.27;;;6.68;;
583;SDS011;27024;54.068;12.116;2023-06-22T03:46:09;11.63;;;6.63;;
583;SDS011;27024;54.068;12.116;2023-06-22T03:48:36;10.25;;;6.47;;
583;SDS011;27024;54.068;12.116;2023-06-22T03:51:04;11.27;;;6.78;;
583;SDS011;27024;54.068;12.116;2023-06-22T03:53:31;10.40;;;7.00;;
583;SDS011;27024;54.068;12.116;2023-06-22T03:55:58;13.35;;;6.55;;
583;SDS011;27024;54.068;12.116;2023-06-22T03:58:25;13.15;;;7.22;;
583;SDS011;27024;54.068;12.116;2023-06-22T04:00:52;10.30;;;6.95;;
583;SDS011;27024;54.068;12.116;2023-06-22T04:03:19;9.35;;;6.03;;
583;SDS011;27024;54.068;12.116;2023-06-22T04:05:47;8.48;;;6.18;;
583;SDS011;27024;54.068;12.116;2023-06-22T04:08:15;9.88;;;6.50;;
583;SDS011;27024;54.068;12.116;2023-06-22T04:10:42;12.15;;;7.32;;
583;SDS011;27024;54.068;12.116;2023-06-22T04:13:09;10.40;;;7.28;;
583;SDS011;27024;54.068;12.116;2023-06-22T04:15:37;11.88;;;6.75;;
583;SDS011;27024;54.068;12.116;2023-06-22T04:18:03;8.48;;;6.03;;
583;SDS011;27024;54.068;12.116;2023-06-22T04:20:31;11.68;;;6.18;;
583;SDS011;27024;54.068;12.116;2023-06-22T04:22:59;9.40;;;6.35;;
583;SDS011;27024;54.068;12.116;2023-06-22T04:25:25;9.85;;;6.32;;
583;SDS011;27024;54.068;12.116;2023-06-22T04:27:52;9.68;;;6.10;;
583;SDS011;27024;54.068;12.116;2023-06-22T04:30:19;9.90;;;6.43;;
583;SDS011;27024;54.068;12.116;2023-06-22T04:32:46;10.75;;;6.63;;
583;SDS011;27024;54.068;12.116;2023-06-22T04:35:25;9.38;;;6.93;;
583;SDS011;27024;54.068;12.116;2023-06-22T04:37:58;11.48;;;7.45;;
583;SDS011;27024;54.068;12.116;2023-06-22T04:42:53;14.52;;;7.55;;
583;SDS011;27024;54.068;12.116;2023-06-22T04:45:20;10.55;;;7.03;;
583;SDS011;27024;54.068;12.116;2023-06-22T04:47:48;12.05;;;7.57;;
583;SDS011;27024;54.068;12.116;2023-06-22T04:50:15;12.43;;;7.88;;
583;SDS011;27024;54.068;12.116;2023-06-22T04:52:43;12.32;;;6.63;;
583;SDS011;27024;54.068;12.116;2023-06-22T04:55:09;9.60;;;6.43;;
583;SDS011;27024;54.068;12.116;2023-06-22T04:57:38;11.00;;;6.43;;
583;SDS011;27024;54.068;12.116;2023-06-22T05:00:06;11.48;;;7.13;;
583;SDS011;27024;54.068;12.116;2023-06-22T05:02:39;10.90;;;6.45;;
583;SDS011;27024;54.068;12.116;2023-06-22T05:05:07;9.35;;;6.35;;
583;SDS011;27024;54.068;12.116;2023-06-22T05:07:35;8.93;;;6.20;;
583;SDS011;27024;54.068;12.116;2023-06-22T05:10:02;9.35;;;5.72;;
583;SDS011;27024;54.068;12.116;2023-06-22T05:12:30;12.88;;;7.47;;
583;SDS011;27024;54.068;12.116;2023-06-22T05:14:57;12.57;;;7.45;;
583;SDS011;27024;54.068;12.116;2023-06-22T05:17:24;9.95;;;5.88;;
583;SDS011;27024;54.068;12.116;2023-06-22T05:19:51;10.07;;;5.93;;
583;SDS011;27024;54.068;12.116;2023-06-22T05:22:19;10.75;;;5.85;;
583;SDS011;27024;54.068;12.116;2023-06-22T05:24:46;9.38;;;6.10;;
583;SDS011;27024;54.068;12.116;2023-06-22T05:27:13;10.48;;;6.05;;
583;SDS011;27024;54.068;12.116;2023-06-22T05:29:40;10.38;;;5.40;;
583;SDS011;27024;54.068;12.116;2023-06-22T05:32:09;12.13;;;5.80;;
583;SDS011;27024;54.068;12.116;2023-06-22T05:34:36;10.98;;;5.95;;
583;SDS011;27024;54.068;12.116;2023-06-22T05:37:03;9.00;;;5.82;;
583;SDS011;27024;54.068;12.116;2023-06-22T05:39:30;9.38;;;6.25;;
583;SDS011;27024;54.068;12.116;2023-06-22T05:41:57;14.10;;;7.35;;
583;SDS011;27024;54.068;12.116;2023-06-22T05:44:24;11.52;;;7.18;;
583;SDS011;27024;54.068;12.116;2023-06-22T05:46:51;9.98;;;7.00;;
583;SDS011;27024;54.068;12.116;2023-06-22T05:49:18;12.43;;;6.80;;
583;SDS011;27024;54.068;12.116;2023-06-22T05:51:45;10.77;;;7.18;;
583;SDS011;27024;54.068;12.116;2023-06-22T05:54:12;10.32;;;7.15;;
583;SDS011;27024;54.068;12.116;2023-06-22T05:56:40;10.30;;;7.20;;
583;SDS011;27024;54.068;12.116;2023-06-22T05:59:07;11.50;;;6.88;;
583;SDS011;27024;54.068;12.116;2023-06-22T06:01:33;10.38;;;6.47;;
583;SDS011;27024;54.068;12.116;2023-06-22T06:04:02;10.15;;;6.53;;
583;SDS011;27024;54.068;12.116;2023-06-22T06:06:30;10.73;;;6.47;;
583;SDS011;27024;54.068;12.116;2023-06-22T06:08:58;9.85;;;5.25;;
583;SDS011;27024;54.068;12.116;2023-06-22T06:11:26;8.35;;;5.50;;
583;SDS011;27024;54.068;12.116;2023-06-22T06:13:53;9.73;;;5.03;;
583;SDS011;27024;54.068;12.116;2023-06-22T06:16:20;9.15;;;5.35;;
583;SDS011;27024;54.068;12.116;2023-06-22T06:18:47;10.00;;;4.50;;
583;SDS011;27024;54.068;12.116;2023-06-22T06:21:15;8.77;;;4.47;;
583;SDS011;27024;54.068;12.116;2023-06-22T06:23:42;7.68;;;4.22;;
583;SDS011;27024;54.068;12.116;2023-06-22T06:26:09;7.63;;;3.10;;
583;SDS011;27024;54.068;12.116;2023-06-22T06:28:36;6.95;;;3.13;;
583;SDS011;27024;54.068;12.116;2023-06-22T06:31:03;7.80;;;3.15;;
583;SDS011;27024;54.068;12.116;2023-06-22T06:33:34;5.60;;;3.13;;
583;SDS011;27024;54.068;12.116;2023-06-22T06:36:01;7.10;;;3.20;;
583;SDS011;27024;54.068;12.116;2023-06-22T06:38:32;5.68;;;2.63;;
583;SDS011;27024;54.068;12.116;2023-06-22T06:40:59;5.07;;;2.78;;
583;SDS011;27024;54.068;12.116;2023-06-22T06:43:26;6.18;;;2.58;;
583;SDS011;27024;54.068;12.116;2023-06-22T06:45:53;5.18;;;3.20;;
583;SDS011;27024;54.068;12.116;2023-06-22T06:48:20;7.07;;;3.05;;
583;SDS011;27024;54.068;12.116;2023-06-22T06:50:47;7.28;;;2.95;;
583;SDS011;27024;54.068;12.116;2023-06-22T06:53:13;5.82;;;2.92;;
583;SDS011;27024;54.068;12.116;2023-06-22T06:55:40;6.22;;;2.75;;
583;SDS011;27024;54.068;12.116;2023-06-22T06:58:07;5.30;;;2.70;;
583;SDS011;27024;54.068;12.116;2023-06-22T07:00:36;6.68;;;2.70;;
583;SDS011;27024;54.068;12.116;2023-06-22T07:03:03;7.35;;;2.72;;
583;SDS011;27024;54.068;12.116;2023-06-22T07:05:30;4.72;;;2.38;;
583;SDS011;27024;54.068;12.116;2023-06-22T07:07:57;5.22;;;2.17;;
583;SDS011;27024;54.068;12.116;2023-06-22T07:10:24;7.15;;;2.70;;
583;SDS011;27024;54.068;12.116;2023-06-22T07:12:51;4.53;;;2.35;;
583;SDS011;27024;54.068;12.116;2023-06-22T07:15:18;6.35;;;1.83;;
583;SDS011;27024;54.068;12.116;2023-06-22T07:17:45;5.70;;;1.95;;
583;SDS011;27024;54.068;12.116;2023-06-22T07:20:12;3.80;;;1.60;;
583;SDS011;27024;54.068;12.116;2023-06-22T07:22:39;3.50;;;1.70;;
583;SDS011;27024;54.068;12.116;2023-06-22T07:25:11;4.10;;;2.20;;
583;SDS011;27024;54.068;12.116;2023-06-22T07:27:57;4.32;;;2.10;;
583;SDS011;27024;54.068;12.116;2023-06-22T07:30:24;4.70;;;2.03;;
583;SDS011;27024;54.068;12.116;2023-06-22T07:32:52;3.05;;;1.80;;
583;SDS011;27024;54.068;12.116;2023-06-22T07:35:19;4.97;;;2.17;;
583;SDS011;27024;54.068;12.116;2023-06-22T07:37:46;5.53;;;2.38;;
583;SDS011;27024;54.068;12.116;2023-06-22T07:40:13;4.70;;;2.30;;
583;SDS011;27024;54.068;12.116;2023-06-22T07:42:40;3.97;;;1.92;;
583;SDS011;27024;54.068;12.116;2023-06-22T07:45:07;3.75;;;1.60;;
583;SDS011;27024;54.068;12.116;2023-06-22T07:47:35;3.90;;;1.83;;
583;SDS011;27024;54.068;12.116;2023-06-22T07:50:03;4.00;;;1.75;;
583;SDS011;27024;54.068;12.116;2023-06-22T07:52:30;3.88;;;1.80;;
583;SDS011;27024;54.068;12.116;2023-06-22T07:54:57;5.22;;;1.92;;
583;SDS011;27024;54.068;12.116;2023-06-22T07:57:24;3.33;;;1.60;;
583;SDS011;27024;54.068;12.116;2023-06-22T08:00:00;4.15;;;1.70;;
583;SDS011;27024;54.068;12.116;2023-06-22T08:02:27;3.13;;;1.60;;
583;SDS011;27024;54.068;12.116;2023-06-22T08:04:54;2.97;;;1.30;;
583;SDS011;27024;54.068;12.116;2023-06-22T08:07:41;3.13;;;1.50;;
583;SDS011;27024;54.068;12.116;2023-06-22T08:10:13;3.33;;;1.55;;
583;SDS011;27024;54.068;12.116;2023-06-22T08:12:40;3.65;;;1.33;;
583;SDS011;27024;54.068;12.116;2023-06-22T08:15:07;3.42;;;1.50;;
583;SDS011;27024;54.068;12.116;2023-06-22T08:17:36;4.40;;;1.63;;
583;SDS011;27024;54.068;12.116;2023-06-22T08:20:06;3.20;;;1.50;;
583;SDS011;27024;54.068;12.116;2023-06-22T08:22:40;3.72;;;1.98;;
583;SDS011;27024;54.068;12.116;2023-06-22T08:25:08;4.28;;;1.77;;
583;SDS011;27024;54.068;12.116;2023-06-22T08:27:36;2.70;;;1.23;;
583;SDS011;27024;54.068;12.116;2023-06-22T08:30:03;3.97;;;1.77;;
583;SDS011;27024;54.068;12.116;2023-06-22T08:32:31;2.67;;;1.48;;
583;SDS011;27024;54.068;12.116;2023-06-22T08:34:59;3.47;;;1.60;;
583;SDS011;27024;54.068;12.116;2023-06-22T08:37:26;2.85;;;1.50;;
583;SDS011;27024;54.068;12.116;2023-06-22T08:40:01;5.57;;;1.88;;
583;SDS011;27024;54.068;12.116;2023-06-22T08:42:37;4.82;;;2.05;;
583;SDS011;27024;54.068;12.116;2023-06-22T08:45:05;6.15;;;1.75;;
583;SDS011;27024;54.068;12.116;2023-06-22T08:47:32;5.65;;;2.00;;
583;SDS011;27024;54.068;12.116;2023-06-22T08:49:59;6.22;;;2.78;;
583;SDS011;27024;54.068;12.116;2023-06-22T08:52:28;7.88;;;1.83;;
583;SDS011;27024;54.068;12.116;2023-06-22T08:54:56;5.00;;;1.70;;
583;SDS011;27024;54.068;12.116;2023-06-22T08:57:24;3.72;;;1.80;;
583;SDS011;27024;54.068;12.116;2023-06-22T08:59:51;3.47;;;1.77;;
583;SDS011;27024;54.068;12.116;2023-06-22T09:02:25;5.60;;;2.00;;
583;SDS011;27024;54.068;12.116;2023-06-22T09:04:53;2.65;;;1.70;;
583;SDS011;27024;54.068;12.116;2023-06-22T09:07:22;4.70;;;2.30;;
583;SDS011;27024;54.068;12.116;2023-06-22T09:09:50;9.15;;;2.50;;
583;SDS011;27024;54.068;12.116;2023-06-22T09:12:18;4.25;;;2.15;;
583;SDS011;27024;54.068;12.116;2023-06-22T09:14:46;4.28;;;1.70;;
583;SDS011;27024;54.068;12.116;2023-06-22T09:17:13;3.30;;;2.33;;
583;SDS011;27024;54.068;12.116;2023-06-22T09:19:49;4.07;;;1.90;;
583;SDS011;27024;54.068;12.116;2023-06-22T09:22:16;4.72;;;1.70;;
583;SDS011;27024;54.068;12.116;2023-06-22T09:24:43;4.28;;;1.70;;
583;SDS011;27024;54.068;12.116;2023-06-22T09:27:10;3.40;;;1.60;;
583;SDS011;27024;54.068;12.116;2023-06-22T09:29:37;3.55;;;1.70;;
583;SDS011;27024;54.068;12.116;2023-06-22T09:32:04;5.40;;;1.67;;
583;SDS011;27024;54.068;12.116;2023-06-22T09:34:31;7.18;;;1.90;;
583;SDS011;27024;54.068;12.116;2023-06-22T09:36:58;3.38;;;1.80;;
583;SDS011;27024;54.068;12.116;2023-06-22T09:39:27;4.47;;;1.88;;
583;SDS011;27024;54.068;12.116;2023-06-22T09:41:54;5.47;;;1.70;;
583;SDS011;27024;54.068;12.116;2023-06-22T09:44:20;4.28;;;1.70;;
583;SDS011;27024;54.068;12.116;2023-06-22T09:46:47;2.85;;;1.40;;
583;SDS011;27024;54.068;12.116;2023-06-22T09:49:14;4.80;;;1.90;;
583;SDS011;27024;54.068;12.116;2023-06-22T09:51:41;3.60;;;1.70;;
583;SDS011;27024;54.068;12.116;2023-06-22T09:54:10;3.83;;;1.70;;
583;SDS011;27024;54.068;12.116;2023-06-22T09:56:37;5.43;;;1.75;;
583;SDS011;27024;54.068;12.116;2023-06-22T09:59:04;3.45;;;1.85;;
583;SDS011;27024;54.068;12.116;2023-06-22T10:01:44;3.38;;;1.73;;
583;SDS011;27024;54.068;12.116;2023-06-22T10:04:10;4.30;;;1.65;;
583;SDS011;27024;54.068;12.116;2023-06-22T10:06:38;4.68;;;2.28;;
583;SDS011;27024;54.068;12.116;2023-06-22T10:09:07;4.60;;;1.73;;
583;SDS011;27024;54.068;12.116;2023-06-22T10:11:34;2.72;;;1.65;;
583;SDS011;27024;54.068;12.116;2023-06-22T10:14:02;5.30;;;2.13;;
583;SDS011;27024;54.068;12.116;2023-06-22T10:16:30;3.88;;;1.40;;
583;SDS011;27024;54.068;12.116;2023-06-22T10:18:57;3.50;;;1.55;;
583;SDS011;27024;54.068;12.116;2023-06-22T10:21:24;4.93;;;1.50;;
583;SDS011;27024;54.068;12.116;2023-06-22T10:23:53;4.45;;;1.20;;
583;SDS011;27024;54.068;12.116;2023-06-22T10:26:21;4.50;;;1.88;;
583;SDS011;27024;54.068;12.116;2023-06-22T10:28:47;4.78;;;1.63;;
583;SDS011;27024;54.068;12.116;2023-06-22T10:31:19;3.55;;;1.60;;
583;SDS011;27024;54.068;12.116;2023-06-22T10:33:45;3.78;;;1.77;;
583;SDS011;27024;54.068;12.116;2023-06-22T10:36:12;2.67;;;1.40;;
583;SDS011;27024;54.068;12.116;2023-06-22T10:38:40;2.53;;;1.40;;
583;SDS011;27024;54.068;12.116;2023-06-22T10:41:06;3.45;;;1.50;;
583;SDS011;27024;54.068;12.116;2023-06-22T10:43:33;2.75;;;1.80;;
583;SDS011;27024;54.068;12.116;2023-06-22T10:46:00;3.40;;;1.58;;
583;SDS011;27024;54.068;12.116;2023-06-22T10:48:27;2.47;;;1.30;;
583;SDS011;27024;54.068;12.116;2023-06-22T10:50:55;3.13;;;1.65;;
583;SDS011;27024;54.068;12.116;2023-06-22T10:53:22;4.03;;;1.20;;
583;SDS011;27024;54.068;12.116;2023-06-22T10:55:49;2.42;;;1.60;;
583;SDS011;27024;54.068;12.116;2023-06-22T10:58:22;4.07;;;1.40;;
583;SDS011;27024;54.068;12.116;2023-06-22T11:00:49;3.63;;;1.35;;
583;SDS011;27024;54.068;12.116;2023-06-22T11:03:16;4.97;;;1.60;;
583;SDS011;27024;54.068;12.116;2023-06-22T11:05:43;3.10;;;1.23;;
583;SDS011;27024;54.068;12.116;2023-06-22T11:08:10;2.92;;;1.40;;
583;SDS011;27024;54.068;12.116;2023-06-22T11:10:37;2.10;;;1.10;;
583;SDS011;27024;54.068;12.116;2023-06-22T11:13:04;2.80;;;1.63;;
583;SDS011;27024;54.068;12.116;2023-06-22T11:15:32;3.65;;;1.52;;
583;SDS011;27024;54.068;12.116;2023-06-22T11:17:58;3.38;;;1.38;;
583;SDS011;27024;54.068;12.116;2023-06-22T11:20:25;2.90;;;1.25;;
583;SDS011;27024;54.068;12.116;2023-06-22T11:22:52;3.67;;;1.45;;
583;SDS011;27024;54.068;12.116;2023-06-22T11:25:19;3.75;;;1.52;;
583;SDS011;27024;54.068;12.116;2023-06-22T11:27:46;4.53;;;3.22;;
583;SDS011;27024;54.068;12.116;2023-06-22T11:30:13;3.60;;;1.45;;
583;SDS011;27024;54.068;12.116;2023-06-22T11:32:40;4.60;;;1.80;;
583;SDS011;27024;54.068;12.116;2023-06-22T11:35:07;2.35;;;1.38;;
583;SDS011;27024;54.068;12.116;2023-06-22T11:37:34;2.90;;;1.80;;
583;SDS011;27024;54.068;12.116;2023-06-22T11:40:01;4.82;;;2.60;;
583;SDS011;27024;54.068;12.116;2023-06-22T11:42:33;3.90;;;2.63;;
583;SDS011;27024;54.068;12.116;2023-06-22T11:45:00;3.42;;;2.50;;
583;SDS011;27024;54.068;12.116;2023-06-22T11:47:28;3.97;;;1.77;;
583;SDS011;27024;54.068;12.116;2023-06-22T11:49:55;3.88;;;1.48;;
583;SDS011;27024;54.068;12.116;2023-06-22T11:52:22;3.28;;;1.30;;
583;SDS011;27024;54.068;12.116;2023-06-22T11:54:49;2.97;;;1.42;;
583;SDS011;27024;54.068;12.116;2023-06-22T11:57:16;3.75;;;1.92;;
583;SDS011;27024;54.068;12.116;2023-06-22T11:59:43;2.90;;;2.33;;
583;SDS011;27024;54.068;12.116;2023-06-22T12:02:10;3.95;;;2.70;;
583;SDS011;27024;54.068;12.116;2023-06-22T12:04:36;3.28;;;1.27;;
583;SDS011;27024;54.068;12.116;2023-06-22T12:07:04;2.75;;;1.60;;
583;SDS011;27024;54.068;12.116;2023-06-22T12:09:31;2.75;;;1.85;;
583;SDS011;27024;54.068;12.116;2023-06-22T12:11:57;4.20;;;1.98;;
583;SDS011;27024;54.068;12.116;2023-06-22T12:14:24;3.80;;;1.40;;
583;SDS011;27024;54.068;12.116;2023-06-22T12:16:51;3.25;;;1.30;;
583;SDS011;27024;54.068;12.116;2023-06-22T12:19:18;3.20;;;1.70;;
583;SDS011;27024;54.068;12.116;2023-06-22T12:21:45;2.70;;;1.48;;
583;SDS011;27024;54.068;12.116;2023-06-22T12:24:12;2.50;;;1.48;;
583;SDS011;27024;54.068;12.116;2023-06-22T12:26:39;2.50;;;2.20;;
583;SDS011;27024;54.068;12.116;2023-06-22T12:29:06;4.97;;;1.67;;
583;SDS011;27024;54.068;12.116;2023-06-22T12:31:33;3.72;;;2.40;;
583;SDS011;27024;54.068;12.116;2023-06-22T12:34:00;3.13;;;1.73;;
583;SDS011;27024;54.068;12.116;2023-06-22T12:36:26;4.32;;;1.60;;
583;SDS011;27024;54.068;12.116;2023-06-22T12:38:54;3.45;;;1.63;;
583;SDS011;27024;54.068;12.116;2023-06-22T12:41:22;2.38;;;1.50;;
583;SDS011;27024;54.068;12.116;2023-06-22T12:43:50;3.33;;;1.15;;
583;SDS011;27024;54.068;12.116;2023-06-22T12:46:17;2.10;;;1.40;;
583;SDS011;27024;54.068;12.116;2023-06-22T12:48:44;3.40;;;2.00;;
583;SDS011;27024;54.068;12.116;2023-06-22T12:51:11;2.67;;;1.30;;
583;SDS011;27024;54.068;12.116;2023-06-22T12:53:38;5.25;;;1.58;;
583;SDS011;27024;54.068;12.116;2023-06-22T12:56:05;3.17;;;1.70;;
583;SDS011;27024;54.068;12.116;2023-06-22T12:58:35;3.22;;;1.77;;
583;SDS011;27024;54.068;12.116;2023-06-22T13:01:02;2.38;;;1.73;;
583;SDS011;27024;54.068;12.116;2023-06-22T13:03:29;2.35;;;1.60;;
583;SDS011;27024;54.068;12.116;2023-06-22T13:05:57;2.10;;;1.17;;
583;SDS011;27024;54.068;12.116;2023-06-22T13:08:24;3.15;;;1.30;;
583;SDS011;27024;54.068;12.116;2023-06-22T13:11:11;4.47;;;2.30;;
583;SDS011;27024;54.068;12.116;2023-06-22T13:13:39;2.90;;;2.20;;
583;SDS011;27024;54.068;12.116;2023-06-22T13:16:07;2.40;;;1.40;;
583;SDS011;27024;54.068;12.116;2023-06-22T13:18:34;2.22;;;1.20;;
583;SDS011;27024;54.068;12.116;2023-06-22T13:21:03;4.28;;;2.60;;
583;SDS011;27024;54.068;12.116;2023-06-22T13:23:31;3.42;;;2.05;;
583;SDS011;27024;54.068;12.116;2023-06-22T13:25:57;3.35;;;0.95;;
583;SDS011;27024;54.068;12.116;2023-06-22T13:28:25;2.58;;;1.10;;
583;SDS011;27024;54.068;12.116;2023-06-22T13:30:54;2.28;;;1.73;;
583;SDS011;27024;54.068;12.116;2023-06-22T13:33:21;3.08;;;2.28;;
583;SDS011;27024;54.068;12.116;2023-06-22T13:35:48;2.38;;;1.00;;
583;SDS011;27024;54.068;12.116;2023-06-22T13:38:16;2.88;;;1.40;;
583;SDS011;27024;54.068;12.116;2023-06-22T13:40:44;3.47;;;1.45;;
583;SDS011;27024;54.068;12.116;2023-06-22T13:43:14;3.70;;;1.50;;
583;SDS011;27024;54.068;12.116;2023-06-22T13:45:42;1.88;;;1.00;;
583;SDS011;27024;54.068;12.116;2023-06-22T13:48:09;3.75;;;1.00;;
583;SDS011;27024;54.068;12.116;2023-06-22T13:50:37;2.30;;;0.90;;
583;SDS011;27024;54.068;12.116;2023-06-22T13:55:46;2.65;;;1.75;;
583;SDS011;27024;54.068;12.116;2023-06-22T13:58:16;2.40;;;1.90;;
583;SDS011;27024;54.068;12.116;2023-06-22T14:00:43;1.88;;;0.90;;
583;SDS011;27024;54.068;12.116;2023-06-22T14:03:11;4.55;;;1.40;;
583;SDS011;27024;54.068;12.116;2023-06-22T14:05:43;2.67;;;1.48;;
583;SDS011;27024;54.068;12.116;2023-06-22T14:08:09;4.28;;;1.88;;
583;SDS011;27024;54.068;12.116;2023-06-22T14:10:58;3.92;;;1.88;;
583;SDS011;27024;54.068;12.116;2023-06-22T14:13:25;1.85;;;1.00;;
583;SDS011;27024;54.068;12.116;2023-06-22T14:15:53;2.10;;;0.75;;
583;SDS011;27024;54.068;12.116;2023-06-22T14:18:20;4.20;;;1.23;;
583;SDS011;27024;54.068;12.116;2023-06-22T14:20:48;3.90;;;1.00;;
583;SDS011;27024;54.068;12.116;2023-06-22T14:23:15;3.72;;;0.80;;
583;SDS011;27024;54.068;12.116;2023-06-22T14:25:42;2.53;;;1.00;;
583;SDS011;27024;54.068;12.116;2023-06-22T14:28:09;4.18;;;2.15;;
583;SDS011;27024;54.068;12.116;2023-06-22T14:30:36;2.70;;;0.93;;
583;SDS011;27024;54.068;12.116;2023-06-22T14:33:03;1.88;;;0.80;;
583;SDS011;27024;54.068;12.116;2023-06-22T14:35:29;1.20;;;0.80;;
583;SDS011;27024;54.068;12.116;2023-06-22T14:37:56;1.52;;;0.85;;
583;SDS011;27024;54.068;12.116;2023-06-22T14:40:23;4.32;;;1.40;;
583;SDS011;27024;54.068;12.116;2023-06-22T14:42:52;4.28;;;0.82;;
583;SDS011;27024;54.068;12.116;2023-06-22T14:45:19;1.80;;;1.50;;
583;SDS011;27024;54.068;12.116;2023-06-22T14:47:46;1.80;;;0.82;;
583;SDS011;27024;54.068;12.116;2023-06-22T14:50:13;2.05;;;1.50;;
583;SDS011;27024;54.068;12.116;2023-06-22T14:52:41;2.15;;;1.00;;
583;SDS011;27024;54.068;12.116;2023-06-22T14:55:08;3.22;;;0.77;;
583;SDS011;27024;54.068;12.116;2023-06-22T14:57:35;2.00;;;0.80;;
583;SDS011;27024;54.068;12.116;2023-06-22T15:00:04;2.10;;;0.73;;
583;SDS011;27024;54.068;12.116;2023-06-22T15:02:32;2.67;;;0.80;;
583;SDS011;27024;54.068;12.116;2023-06-22T15:05:00;1.83;;;1.52;;
583;SDS011;27024;54.068;12.116;2023-06-22T15:07:27;2.95;;;1.40;;
583;SDS011;27024;54.068;12.116;2023-06-22T15:09:55;2.50;;;1.20;;
583;SDS011;27024;54.068;12.116;2023-06-22T15:12:22;2.70;;;1.73;;
583;SDS011;27024;54.068;12.116;2023-06-22T15:14:49;2.13;;;0.80;;
583;SDS011;27024;54.068;12.116;2023-06-22T15:17:16;2.42;;;1.02;;
583;SDS011;27024;54.068;12.116;2023-06-22T15:19:44;3.10;;;0.80;;